sensor_id;sensor_type;location;lat;lon;timestamp;P1;durP1;ratioP1;P2;durP2;ratioP2
61471;SDS011;47337;54.068;12.114;2023-06-14T00:00:51;7.70;;;3.40;;
61471;SDS011;47337;54.068;12.114;2023-06-14T00:03:23;5.28;;;3.10;;
61471;SDS011;47337;54.068;12.114;2023-06-14T00:05:49;6.43;;;3.25;;
61471;SDS011;47337;54.068;12.114;2023-06-14T00:08:15;4.43;;;2.97;;
61471;SDS011;47337;54.068;12.114;2023-06-14T00:10:40;5.40;;;3.10;;
61471;SDS011;47337;54.068;12.114;2023-06-14T00:13:08;8.75;;;3.67;;
61471;SDS011;47337;54.068;12.114;2023-06-14T00:15:34;6.88;;;3.63;;
61471;SDS011;47337;54.068;12.114;2023-06-14T00:18:02;9.52;;;3.58;;
61471;SDS011;47337;54.068;12.114;2023-06-14T00:20:30;6.63;;;3.78;;
61471;SDS011;47337;54.068;12.114;2023-06-14T00:22:57;6.28;;;4.05;;
61471;SDS011;47337;54.068;12.114;2023-06-14T00:25:23;6.40;;;3.60;;
61471;SDS011;47337;54.068;12.114;2023-06-14T00:27:52;9.95;;;3.30;;
61471;SDS011;47337;54.068;12.114;2023-06-14T00:30:17;7.90;;;3.45;;
61471;SDS011;47337;54.068;12.114;2023-06-14T00:32:43;11.48;;;3.70;;
61471;SDS011;47337;54.068;12.114;2023-06-14T00:35:08;10.30;;;3.70;;
61471;SDS011;47337;54.068;12.114;2023-06-14T00:37:34;7.53;;;4.05;;
61471;SDS011;47337;54.068;12.114;2023-06-14T00:40:00;6.45;;;3.85;;
61471;SDS011;47337;54.068;12.114;2023-06-14T00:42:27;8.25;;;3.35;;
61471;SDS011;47337;54.068;12.114;2023-06-14T00:44:56;8.93;;;3.47;;
61471;SDS011;47337;54.068;12.114;2023-06-14T00:47:21;4.72;;;3.33;;
61471;SDS011;47337;54.068;12.114;2023-06-14T00:49:47;7.47;;;3.35;;
61471;SDS011;47337;54.068;12.114;2023-06-14T00:52:13;7.80;;;3.47;;
61471;SDS011;47337;54.068;12.114;2023-06-14T00:54:41;7.15;;;3.40;;
61471;SDS011;47337;54.068;12.114;2023-06-14T00:57:07;6.20;;;3.85;;
61471;SDS011;47337;54.068;12.114;2023-06-14T00:59:33;6.85;;;3.75;;
61471;SDS011;47337;54.068;12.114;2023-06-14T01:01:59;7.82;;;3.88;;
61471;SDS011;47337;54.068;12.114;2023-06-14T01:04:24;11.85;;;4.30;;
61471;SDS011;47337;54.068;12.114;2023-06-14T01:07:41;10.00;;;4.00;;
61471;SDS011;47337;54.068;12.114;2023-06-14T01:14:57;5.63;;;3.47;;
61471;SDS011;47337;54.068;12.114;2023-06-14T01:17:23;6.68;;;3.28;;
61471;SDS011;47337;54.068;12.114;2023-06-14T01:19:49;8.23;;;3.42;;
61471;SDS011;47337;54.068;12.114;2023-06-14T01:22:24;5.82;;;3.45;;
61471;SDS011;47337;54.068;12.114;2023-06-14T01:24:49;11.88;;;4.18;;
61471;SDS011;47337;54.068;12.114;2023-06-14T01:27:15;9.65;;;3.75;;
61471;SDS011;47337;54.068;12.114;2023-06-14T01:29:43;8.00;;;4.07;;
61471;SDS011;47337;54.068;12.114;2023-06-14T01:32:13;6.45;;;3.65;;
61471;SDS011;47337;54.068;12.114;2023-06-14T01:34:38;5.32;;;3.42;;
61471;SDS011;47337;54.068;12.114;2023-06-14T01:37:06;9.20;;;4.57;;
61471;SDS011;47337;54.068;12.114;2023-06-14T01:39:33;7.07;;;3.70;;
61471;SDS011;47337;54.068;12.114;2023-06-14T01:41:58;7.07;;;3.70;;
61471;SDS011;47337;54.068;12.114;2023-06-14T01:44:24;8.65;;;4.05;;
61471;SDS011;47337;54.068;12.114;2023-06-14T01:46:50;9.02;;;3.63;;
61471;SDS011;47337;54.068;12.114;2023-06-14T01:49:15;6.32;;;3.70;;
61471;SDS011;47337;54.068;12.114;2023-06-14T01:51:43;7.38;;;3.90;;
61471;SDS011;47337;54.068;12.114;2023-06-14T01:54:08;7.07;;;3.67;;
61471;SDS011;47337;54.068;12.114;2023-06-14T01:56:33;6.68;;;3.70;;
61471;SDS011;47337;54.068;12.114;2023-06-14T01:59:01;7.53;;;4.05;;
61471;SDS011;47337;54.068;12.114;2023-06-14T02:01:26;6.00;;;3.95;;
61471;SDS011;47337;54.068;12.114;2023-06-14T02:03:52;6.75;;;4.07;;
61471;SDS011;47337;54.068;12.114;2023-06-14T02:06:18;11.68;;;3.70;;
61471;SDS011;47337;54.068;12.114;2023-06-14T02:08:44;7.88;;;3.55;;
61471;SDS011;47337;54.068;12.114;2023-06-14T02:11:11;5.70;;;3.45;;
61471;SDS011;47337;54.068;12.114;2023-06-14T02:13:38;5.53;;;3.85;;
61471;SDS011;47337;54.068;12.114;2023-06-14T02:16:04;7.32;;;4.03;;
61471;SDS011;47337;54.068;12.114;2023-06-14T02:18:29;9.20;;;4.45;;
61471;SDS011;47337;54.068;12.114;2023-06-14T02:20:54;7.88;;;3.88;;
61471;SDS011;47337;54.068;12.114;2023-06-14T02:23:22;7.55;;;4.13;;
61471;SDS011;47337;54.068;12.114;2023-06-14T02:25:47;5.53;;;4.10;;
61471;SDS011;47337;54.068;12.114;2023-06-14T02:28:13;8.25;;;4.05;;
61471;SDS011;47337;54.068;12.114;2023-06-14T02:30:38;5.85;;;4.50;;
61471;SDS011;47337;54.068;12.114;2023-06-14T02:33:04;9.30;;;4.50;;
61471;SDS011;47337;54.068;12.114;2023-06-14T02:35:30;8.05;;;4.38;;
61471;SDS011;47337;54.068;12.114;2023-06-14T02:37:55;8.48;;;4.43;;
61471;SDS011;47337;54.068;12.114;2023-06-14T02:40:20;10.38;;;4.85;;
61471;SDS011;47337;54.068;12.114;2023-06-14T02:42:48;12.32;;;4.97;;
61471;SDS011;47337;54.068;12.114;2023-06-14T02:45:13;10.85;;;5.13;;
61471;SDS011;47337;54.068;12.114;2023-06-14T02:47:40;10.70;;;5.20;;
61471;SDS011;47337;54.068;12.114;2023-06-14T02:50:06;11.52;;;4.63;;
61471;SDS011;47337;54.068;12.114;2023-06-14T02:52:31;8.88;;;4.20;;
61471;SDS011;47337;54.068;12.114;2023-06-14T02:54:58;7.60;;;4.65;;
61471;SDS011;47337;54.068;12.114;2023-06-14T02:57:23;8.02;;;3.90;;
61471;SDS011;47337;54.068;12.114;2023-06-14T02:59:51;6.80;;;4.53;;
61471;SDS011;47337;54.068;12.114;2023-06-14T03:02:18;8.38;;;4.85;;
61471;SDS011;47337;54.068;12.114;2023-06-14T03:04:44;10.30;;;4.35;;
61471;SDS011;47337;54.068;12.114;2023-06-14T03:07:11;8.32;;;5.07;;
61471;SDS011;47337;54.068;12.114;2023-06-14T03:09:37;8.82;;;4.13;;
61471;SDS011;47337;54.068;12.114;2023-06-14T03:12:03;8.20;;;4.93;;
61471;SDS011;47337;54.068;12.114;2023-06-14T03:14:29;6.20;;;3.97;;
61471;SDS011;47337;54.068;12.114;2023-06-14T03:16:56;10.73;;;4.22;;
61471;SDS011;47337;54.068;12.114;2023-06-14T03:19:22;7.78;;;4.10;;
61471;SDS011;47337;54.068;12.114;2023-06-14T03:21:47;7.43;;;3.85;;
61471;SDS011;47337;54.068;12.114;2023-06-14T03:24:14;5.78;;;3.92;;
61471;SDS011;47337;54.068;12.114;2023-06-14T03:26:41;6.72;;;4.40;;
61471;SDS011;47337;54.068;12.114;2023-06-14T03:29:06;6.28;;;3.50;;
61471;SDS011;47337;54.068;12.114;2023-06-14T03:31:31;5.50;;;3.88;;
61471;SDS011;47337;54.068;12.114;2023-06-14T03:33:57;7.32;;;3.15;;
61471;SDS011;47337;54.068;12.114;2023-06-14T03:36:23;5.63;;;3.30;;
61471;SDS011;47337;54.068;12.114;2023-06-14T03:38:50;5.72;;;3.00;;
61471;SDS011;47337;54.068;12.114;2023-06-14T03:41:16;5.85;;;3.38;;
61471;SDS011;47337;54.068;12.114;2023-06-14T03:43:41;5.47;;;3.00;;
61471;SDS011;47337;54.068;12.114;2023-06-14T03:46:06;4.35;;;3.13;;
61471;SDS011;47337;54.068;12.114;2023-06-14T03:48:31;4.78;;;2.88;;
61471;SDS011;47337;54.068;12.114;2023-06-14T03:50:57;7.72;;;3.10;;
61471;SDS011;47337;54.068;12.114;2023-06-14T03:53:23;6.07;;;3.15;;
61471;SDS011;47337;54.068;12.114;2023-06-14T03:55:50;7.63;;;3.00;;
61471;SDS011;47337;54.068;12.114;2023-06-14T03:58:17;5.13;;;2.85;;
61471;SDS011;47337;54.068;12.114;2023-06-14T04:00:44;3.88;;;3.20;;
61471;SDS011;47337;54.068;12.114;2023-06-14T04:03:10;7.80;;;3.20;;
61471;SDS011;47337;54.068;12.114;2023-06-14T04:05:38;5.93;;;2.80;;
61471;SDS011;47337;54.068;12.114;2023-06-14T04:08:07;5.53;;;3.10;;
61471;SDS011;47337;54.068;12.114;2023-06-14T04:10:34;7.80;;;2.90;;
61471;SDS011;47337;54.068;12.114;2023-06-14T04:12:59;4.80;;;2.65;;
61471;SDS011;47337;54.068;12.114;2023-06-14T04:15:24;6.25;;;3.40;;
61471;SDS011;47337;54.068;12.114;2023-06-14T04:17:50;5.85;;;2.55;;
61471;SDS011;47337;54.068;12.114;2023-06-14T04:20:15;3.45;;;2.30;;
61471;SDS011;47337;54.068;12.114;2023-06-14T04:22:42;6.78;;;3.33;;
61471;SDS011;47337;54.068;12.114;2023-06-14T04:25:09;4.75;;;2.58;;
61471;SDS011;47337;54.068;12.114;2023-06-14T04:27:35;6.13;;;3.03;;
61471;SDS011;47337;54.068;12.114;2023-06-14T04:30:01;5.20;;;2.78;;
61471;SDS011;47337;54.068;12.114;2023-06-14T04:32:28;6.45;;;3.13;;
61471;SDS011;47337;54.068;12.114;2023-06-14T04:34:58;6.30;;;2.83;;
61471;SDS011;47337;54.068;12.114;2023-06-14T04:37:24;5.57;;;3.08;;
61471;SDS011;47337;54.068;12.114;2023-06-14T04:39:51;7.13;;;2.85;;
61471;SDS011;47337;54.068;12.114;2023-06-14T04:42:19;5.88;;;2.78;;
61471;SDS011;47337;54.068;12.114;2023-06-14T04:44:45;5.38;;;2.90;;
61471;SDS011;47337;54.068;12.114;2023-06-14T04:47:12;6.10;;;2.92;;
61471;SDS011;47337;54.068;12.114;2023-06-14T04:49:38;5.28;;;2.88;;
61471;SDS011;47337;54.068;12.114;2023-06-14T04:52:05;5.43;;;2.90;;
61471;SDS011;47337;54.068;12.114;2023-06-14T04:54:30;4.00;;;3.00;;
61471;SDS011;47337;54.068;12.114;2023-06-14T04:57:00;6.60;;;3.08;;
61471;SDS011;47337;54.068;12.114;2023-06-14T04:59:25;6.72;;;3.33;;
61471;SDS011;47337;54.068;12.114;2023-06-14T05:01:50;6.15;;;3.08;;
61471;SDS011;47337;54.068;12.114;2023-06-14T05:04:16;5.40;;;3.05;;
61471;SDS011;47337;54.068;12.114;2023-06-14T05:06:44;9.23;;;3.58;;
61471;SDS011;47337;54.068;12.114;2023-06-14T05:09:10;4.05;;;2.95;;
61471;SDS011;47337;54.068;12.114;2023-06-14T05:11:35;3.85;;;3.17;;
61471;SDS011;47337;54.068;12.114;2023-06-14T05:14:01;6.28;;;2.97;;
61471;SDS011;47337;54.068;12.114;2023-06-14T05:16:26;5.50;;;3.00;;
61471;SDS011;47337;54.068;12.114;2023-06-14T05:18:52;6.78;;;3.33;;
61471;SDS011;47337;54.068;12.114;2023-06-14T05:21:18;4.65;;;2.95;;
61471;SDS011;47337;54.068;12.114;2023-06-14T05:23:44;5.85;;;2.90;;
61471;SDS011;47337;54.068;12.114;2023-06-14T05:26:10;5.75;;;3.20;;
61471;SDS011;47337;54.068;12.114;2023-06-14T05:28:35;4.80;;;3.15;;
61471;SDS011;47337;54.068;12.114;2023-06-14T05:31:02;5.28;;;3.13;;
61471;SDS011;47337;54.068;12.114;2023-06-14T05:33:28;6.22;;;3.45;;
61471;SDS011;47337;54.068;12.114;2023-06-14T05:35:53;7.28;;;3.42;;
61471;SDS011;47337;54.068;12.114;2023-06-14T05:38:18;7.07;;;3.30;;
61471;SDS011;47337;54.068;12.114;2023-06-14T05:40:46;6.95;;;3.75;;
61471;SDS011;47337;54.068;12.114;2023-06-14T05:43:12;6.28;;;3.13;;
61471;SDS011;47337;54.068;12.114;2023-06-14T05:45:37;6.30;;;2.90;;
61471;SDS011;47337;54.068;12.114;2023-06-14T05:48:02;5.40;;;3.15;;
61471;SDS011;47337;54.068;12.114;2023-06-14T05:50:28;8.32;;;3.17;;
61471;SDS011;47337;54.068;12.114;2023-06-14T05:52:53;4.03;;;2.80;;
61471;SDS011;47337;54.068;12.114;2023-06-14T05:55:18;6.70;;;3.25;;
61471;SDS011;47337;54.068;12.114;2023-06-14T05:57:44;6.45;;;3.20;;
61471;SDS011;47337;54.068;12.114;2023-06-14T06:00:09;7.55;;;3.10;;
61471;SDS011;47337;54.068;12.114;2023-06-14T06:02:42;7.97;;;3.60;;
61471;SDS011;47337;54.068;12.114;2023-06-14T06:05:08;6.15;;;3.50;;
61471;SDS011;47337;54.068;12.114;2023-06-14T06:07:37;5.68;;;3.35;;
61471;SDS011;47337;54.068;12.114;2023-06-14T06:10:03;4.93;;;2.90;;
61471;SDS011;47337;54.068;12.114;2023-06-14T06:12:29;8.45;;;3.60;;
61471;SDS011;47337;54.068;12.114;2023-06-14T06:14:54;10.05;;;4.03;;
61471;SDS011;47337;54.068;12.114;2023-06-14T06:17:22;11.48;;;3.70;;
61471;SDS011;47337;54.068;12.114;2023-06-14T06:19:47;11.07;;;4.05;;
61471;SDS011;47337;54.068;12.114;2023-06-14T06:22:14;9.90;;;4.60;;
61471;SDS011;47337;54.068;12.114;2023-06-14T06:24:40;11.20;;;4.85;;
61471;SDS011;47337;54.068;12.114;2023-06-14T06:27:05;10.98;;;4.75;;
61471;SDS011;47337;54.068;12.114;2023-06-14T06:29:33;14.13;;;5.45;;
61471;SDS011;47337;54.068;12.114;2023-06-14T06:32:01;14.50;;;4.93;;
61471;SDS011;47337;54.068;12.114;2023-06-14T06:34:26;11.25;;;4.70;;
61471;SDS011;47337;54.068;12.114;2023-06-14T06:36:54;18.55;;;5.13;;
61471;SDS011;47337;54.068;12.114;2023-06-14T06:39:21;14.07;;;4.60;;
61471;SDS011;47337;54.068;12.114;2023-06-14T06:41:47;9.55;;;4.25;;
61471;SDS011;47337;54.068;12.114;2023-06-14T06:44:12;15.68;;;4.65;;
61471;SDS011;47337;54.068;12.114;2023-06-14T06:46:38;13.95;;;3.83;;
61471;SDS011;47337;54.068;12.114;2023-06-14T06:49:06;7.10;;;3.45;;
61471;SDS011;47337;54.068;12.114;2023-06-14T06:51:31;9.60;;;3.60;;
61471;SDS011;47337;54.068;12.114;2023-06-14T06:53:56;10.13;;;4.43;;
61471;SDS011;47337;54.068;12.114;2023-06-14T06:56:22;11.13;;;3.97;;
61471;SDS011;47337;54.068;12.114;2023-06-14T06:58:48;8.32;;;3.40;;
61471;SDS011;47337;54.068;12.114;2023-06-14T07:01:14;5.68;;;3.00;;
61471;SDS011;47337;54.068;12.114;2023-06-14T07:03:41;8.88;;;3.60;;
61471;SDS011;47337;54.068;12.114;2023-06-14T07:06:06;6.72;;;3.08;;
61471;SDS011;47337;54.068;12.114;2023-06-14T07:08:32;7.50;;;3.33;;
61471;SDS011;47337;54.068;12.114;2023-06-14T07:11:00;5.18;;;3.25;;
61471;SDS011;47337;54.068;12.114;2023-06-14T07:13:26;5.35;;;3.22;;
61471;SDS011;47337;54.068;12.114;2023-06-14T07:15:53;9.23;;;3.70;;
61471;SDS011;47337;54.068;12.114;2023-06-14T07:18:21;6.10;;;3.30;;
61471;SDS011;47337;54.068;12.114;2023-06-14T07:20:47;8.25;;;3.47;;
61471;SDS011;47337;54.068;12.114;2023-06-14T07:23:12;6.03;;;2.72;;
61471;SDS011;47337;54.068;12.114;2023-06-14T07:25:38;6.82;;;2.97;;
61471;SDS011;47337;54.068;12.114;2023-06-14T07:28:03;8.48;;;3.40;;
61471;SDS011;47337;54.068;12.114;2023-06-14T07:30:28;8.50;;;3.85;;
61471;SDS011;47337;54.068;12.114;2023-06-14T07:32:55;7.07;;;3.63;;
61471;SDS011;47337;54.068;12.114;2023-06-14T07:35:20;6.35;;;3.67;;
61471;SDS011;47337;54.068;12.114;2023-06-14T07:37:45;4.35;;;3.25;;
61471;SDS011;47337;54.068;12.114;2023-06-14T07:40:13;6.82;;;3.10;;
61471;SDS011;47337;54.068;12.114;2023-06-14T07:42:38;8.60;;;3.40;;
61471;SDS011;47337;54.068;12.114;2023-06-14T07:45:04;11.32;;;3.30;;
61471;SDS011;47337;54.068;12.114;2023-06-14T07:47:32;11.77;;;3.28;;
61471;SDS011;47337;54.068;12.114;2023-06-14T07:49:57;10.50;;;3.45;;
61471;SDS011;47337;54.068;12.114;2023-06-14T07:52:22;5.28;;;3.45;;
61471;SDS011;47337;54.068;12.114;2023-06-14T07:54:48;10.70;;;3.38;;
61471;SDS011;47337;54.068;12.114;2023-06-14T07:57:13;6.15;;;2.83;;
61471;SDS011;47337;54.068;12.114;2023-06-14T07:59:40;8.10;;;3.40;;
61471;SDS011;47337;54.068;12.114;2023-06-14T08:02:06;7.82;;;2.90;;
61471;SDS011;47337;54.068;12.114;2023-06-14T08:04:33;8.15;;;2.85;;
61471;SDS011;47337;54.068;12.114;2023-06-14T08:06:59;9.98;;;3.22;;
61471;SDS011;47337;54.068;12.114;2023-06-14T08:09:24;7.15;;;2.65;;
61471;SDS011;47337;54.068;12.114;2023-06-14T08:11:50;5.45;;;2.80;;
61471;SDS011;47337;54.068;12.114;2023-06-14T08:14:18;2.97;;;2.20;;
61471;SDS011;47337;54.068;12.114;2023-06-14T08:16:43;7.40;;;2.90;;
61471;SDS011;47337;54.068;12.114;2023-06-14T08:19:08;8.88;;;3.70;;
61471;SDS011;47337;54.068;12.114;2023-06-14T08:21:36;7.10;;;2.90;;
61471;SDS011;47337;54.068;12.114;2023-06-14T08:24:04;4.20;;;2.92;;
61471;SDS011;47337;54.068;12.114;2023-06-14T08:26:30;3.90;;;3.08;;
61471;SDS011;47337;54.068;12.114;2023-06-14T08:28:57;6.30;;;2.80;;
61471;SDS011;47337;54.068;12.114;2023-06-14T08:31:23;6.68;;;2.90;;
61471;SDS011;47337;54.068;12.114;2023-06-14T08:33:50;3.50;;;2.78;;
61471;SDS011;47337;54.068;12.114;2023-06-14T08:36:15;4.25;;;3.00;;
61471;SDS011;47337;54.068;12.114;2023-06-14T08:38:41;4.95;;;2.80;;
61471;SDS011;47337;54.068;12.114;2023-06-14T08:41:06;5.85;;;2.78;;
61471;SDS011;47337;54.068;12.114;2023-06-14T08:43:35;5.05;;;2.55;;
61471;SDS011;47337;54.068;12.114;2023-06-14T08:46:00;4.95;;;2.78;;
61471;SDS011;47337;54.068;12.114;2023-06-14T08:48:27;3.90;;;2.58;;
61471;SDS011;47337;54.068;12.114;2023-06-14T08:50:54;5.72;;;2.42;;
61471;SDS011;47337;54.068;12.114;2023-06-14T08:53:28;3.40;;;2.33;;
61471;SDS011;47337;54.068;12.114;2023-06-14T08:55:57;7.28;;;2.58;;
61471;SDS011;47337;54.068;12.114;2023-06-14T08:58:22;5.18;;;2.42;;
61471;SDS011;47337;54.068;12.114;2023-06-14T09:00:49;5.38;;;2.78;;
61471;SDS011;47337;54.068;12.114;2023-06-14T09:03:17;4.45;;;2.53;;
61471;SDS011;47337;54.068;12.114;2023-06-14T09:05:42;3.53;;;2.40;;
61471;SDS011;47337;54.068;12.114;2023-06-14T09:08:08;4.53;;;2.65;;
61471;SDS011;47337;54.068;12.114;2023-06-14T09:10:38;4.55;;;2.58;;
61471;SDS011;47337;54.068;12.114;2023-06-14T09:13:04;4.00;;;2.90;;
61471;SDS011;47337;54.068;12.114;2023-06-14T09:15:33;5.38;;;2.58;;
61471;SDS011;47337;54.068;12.114;2023-06-14T09:18:00;2.92;;;2.28;;
61471;SDS011;47337;54.068;12.114;2023-06-14T09:20:29;4.47;;;2.83;;
61471;SDS011;47337;54.068;12.114;2023-06-14T09:22:57;4.18;;;2.53;;
61471;SDS011;47337;54.068;12.114;2023-06-14T09:25:22;4.72;;;2.60;;
61471;SDS011;47337;54.068;12.114;2023-06-14T09:27:51;4.90;;;3.08;;
61471;SDS011;47337;54.068;12.114;2023-06-14T09:30:16;8.98;;;3.15;;
61471;SDS011;47337;54.068;12.114;2023-06-14T09:32:44;3.13;;;2.35;;
61471;SDS011;47337;54.068;12.114;2023-06-14T09:35:10;6.63;;;2.67;;
61471;SDS011;47337;54.068;12.114;2023-06-14T09:37:35;3.75;;;2.08;;
61471;SDS011;47337;54.068;12.114;2023-06-14T09:40:03;6.32;;;2.70;;
61471;SDS011;47337;54.068;12.114;2023-06-14T09:42:32;5.63;;;2.20;;
61471;SDS011;47337;54.068;12.114;2023-06-14T09:45:00;4.95;;;2.15;;
61471;SDS011;47337;54.068;12.114;2023-06-14T09:47:26;7.00;;;2.45;;
61471;SDS011;47337;54.068;12.114;2023-06-14T09:49:54;6.28;;;2.22;;
61471;SDS011;47337;54.068;12.114;2023-06-14T09:52:22;4.95;;;1.90;;
61471;SDS011;47337;54.068;12.114;2023-06-14T09:54:51;3.90;;;2.30;;
61471;SDS011;47337;54.068;12.114;2023-06-14T09:57:22;5.50;;;2.28;;
61471;SDS011;47337;54.068;12.114;2023-06-14T09:59:48;3.63;;;2.22;;
61471;SDS011;47337;54.068;12.114;2023-06-14T10:02:24;10.48;;;2.13;;
61471;SDS011;47337;54.068;12.114;2023-06-14T10:04:53;6.65;;;2.70;;
61471;SDS011;47337;54.068;12.114;2023-06-14T10:07:22;3.78;;;1.88;;
61471;SDS011;47337;54.068;12.114;2023-06-14T10:09:50;6.40;;;2.22;;
61471;SDS011;47337;54.068;12.114;2023-06-14T10:12:16;6.07;;;2.00;;
61471;SDS011;47337;54.068;12.114;2023-06-14T10:14:48;4.20;;;2.13;;
61471;SDS011;47337;54.068;12.114;2023-06-14T10:17:17;8.90;;;2.20;;
61471;SDS011;47337;54.068;12.114;2023-06-14T10:19:55;3.05;;;1.90;;
61471;SDS011;47337;54.068;12.114;2023-06-14T10:24:47;6.90;;;2.30;;
61471;SDS011;47337;54.068;12.114;2023-06-14T10:27:15;4.05;;;2.13;;
61471;SDS011;47337;54.068;12.114;2023-06-14T10:32:17;6.95;;;2.20;;
61471;SDS011;47337;54.068;12.114;2023-06-14T10:34:43;5.65;;;1.83;;
61471;SDS011;47337;54.068;12.114;2023-06-14T10:37:15;2.78;;;2.13;;
61471;SDS011;47337;54.068;12.114;2023-06-14T10:39:42;5.63;;;2.20;;
61471;SDS011;47337;54.068;12.114;2023-06-14T10:42:08;3.75;;;1.98;;
61471;SDS011;47337;54.068;12.114;2023-06-14T10:44:33;4.30;;;1.85;;
61471;SDS011;47337;54.068;12.114;2023-06-14T10:47:03;7.65;;;2.30;;
61471;SDS011;47337;54.068;12.114;2023-06-14T10:49:41;2.25;;;1.75;;
61471;SDS011;47337;54.068;12.114;2023-06-14T10:52:13;6.95;;;2.15;;
61471;SDS011;47337;54.068;12.114;2023-06-14T10:57:40;4.70;;;2.30;;
61471;SDS011;47337;54.068;12.114;2023-06-14T11:00:07;3.40;;;2.20;;
61471;SDS011;47337;54.068;12.114;2023-06-14T11:05:25;3.67;;;2.30;;
61471;SDS011;47337;54.068;12.114;2023-06-14T11:10:37;6.10;;;2.25;;
61471;SDS011;47337;54.068;12.114;2023-06-14T11:13:02;4.85;;;2.20;;
61471;SDS011;47337;54.068;12.114;2023-06-14T11:15:28;7.70;;;2.03;;
61471;SDS011;47337;54.068;12.114;2023-06-14T11:17:54;1.90;;;1.70;;
61471;SDS011;47337;54.068;12.114;2023-06-14T11:20:23;4.88;;;2.25;;
61471;SDS011;47337;54.068;12.114;2023-06-14T11:22:54;3.67;;;1.63;;
61471;SDS011;47337;54.068;12.114;2023-06-14T11:25:19;5.22;;;2.20;;
61471;SDS011;47337;54.068;12.114;2023-06-14T11:27:45;4.18;;;1.65;;
61471;SDS011;47337;54.068;12.114;2023-06-14T11:30:10;2.97;;;2.20;;
61471;SDS011;47337;54.068;12.114;2023-06-14T11:32:36;4.05;;;1.80;;
61471;SDS011;47337;54.068;12.114;2023-06-14T11:35:02;2.83;;;1.80;;
61471;SDS011;47337;54.068;12.114;2023-06-14T11:37:27;6.10;;;2.28;;
61471;SDS011;47337;54.068;12.114;2023-06-14T11:39:57;4.35;;;1.98;;
61471;SDS011;47337;54.068;12.114;2023-06-14T11:42:22;7.63;;;2.20;;
61471;SDS011;47337;54.068;12.114;2023-06-14T11:44:49;4.82;;;2.08;;
61471;SDS011;47337;54.068;12.114;2023-06-14T11:47:16;9.05;;;2.47;;
61471;SDS011;47337;54.068;12.114;2023-06-14T11:49:42;5.85;;;2.13;;
61471;SDS011;47337;54.068;12.114;2023-06-14T11:52:08;4.57;;;1.88;;
61471;SDS011;47337;54.068;12.114;2023-06-14T11:54:35;5.30;;;1.85;;
61471;SDS011;47337;54.068;12.114;2023-06-14T11:57:05;4.05;;;1.85;;
61471;SDS011;47337;54.068;12.114;2023-06-14T11:59:32;6.70;;;2.20;;
61471;SDS011;47337;54.068;12.114;2023-06-14T12:01:57;5.75;;;1.80;;
61471;SDS011;47337;54.068;12.114;2023-06-14T12:04:29;5.40;;;2.00;;
61471;SDS011;47337;54.068;12.114;2023-06-14T12:06:55;4.30;;;2.00;;
61471;SDS011;47337;54.068;12.114;2023-06-14T12:09:26;4.30;;;1.70;;
61471;SDS011;47337;54.068;12.114;2023-06-14T12:11:59;5.70;;;1.77;;
61471;SDS011;47337;54.068;12.114;2023-06-14T12:14:29;7.65;;;1.98;;
61471;SDS011;47337;54.068;12.114;2023-06-14T12:17:03;5.10;;;1.83;;
61471;SDS011;47337;54.068;12.114;2023-06-14T12:19:28;2.72;;;1.70;;
61471;SDS011;47337;54.068;12.114;2023-06-14T12:21:53;7.47;;;1.90;;
61471;SDS011;47337;54.068;12.114;2023-06-14T12:24:19;3.88;;;1.67;;
61471;SDS011;47337;54.068;12.114;2023-06-14T12:26:44;2.40;;;2.20;;
61471;SDS011;47337;54.068;12.114;2023-06-14T12:29:10;2.67;;;1.77;;
61471;SDS011;47337;54.068;12.114;2023-06-14T12:31:37;4.03;;;1.85;;
61471;SDS011;47337;54.068;12.114;2023-06-14T12:34:02;5.40;;;1.70;;
61471;SDS011;47337;54.068;12.114;2023-06-14T12:36:28;4.00;;;1.98;;
61471;SDS011;47337;54.068;12.114;2023-06-14T12:38:53;7.28;;;2.20;;
61471;SDS011;47337;54.068;12.114;2023-06-14T12:41:19;4.63;;;2.08;;
61471;SDS011;47337;54.068;12.114;2023-06-14T12:43:46;5.05;;;1.73;;
61471;SDS011;47337;54.068;12.114;2023-06-14T12:46:11;3.17;;;2.03;;
61471;SDS011;47337;54.068;12.114;2023-06-14T12:48:37;3.95;;;1.92;;
61471;SDS011;47337;54.068;12.114;2023-06-14T12:51:02;9.95;;;2.13;;
61471;SDS011;47337;54.068;12.114;2023-06-14T12:53:27;3.60;;;2.15;;
61471;SDS011;47337;54.068;12.114;2023-06-14T12:55:52;4.05;;;1.90;;
61471;SDS011;47337;54.068;12.114;2023-06-14T12:58:18;2.92;;;1.92;;
61471;SDS011;47337;54.068;12.114;2023-06-14T13:00:46;3.20;;;1.90;;
61471;SDS011;47337;54.068;12.114;2023-06-14T13:03:11;3.45;;;1.83;;
61471;SDS011;47337;54.068;12.114;2023-06-14T13:05:37;3.25;;;2.00;;
61471;SDS011;47337;54.068;12.114;2023-06-14T13:08:05;4.40;;;1.95;;
61471;SDS011;47337;54.068;12.114;2023-06-14T13:10:31;4.85;;;1.60;;
61471;SDS011;47337;54.068;12.114;2023-06-14T13:12:58;5.10;;;2.28;;
61471;SDS011;47337;54.068;12.114;2023-06-14T13:15:25;4.93;;;1.90;;
61471;SDS011;47337;54.068;12.114;2023-06-14T13:17:53;8.23;;;1.90;;
61471;SDS011;47337;54.068;12.114;2023-06-14T13:20:18;6.47;;;2.22;;
61471;SDS011;47337;54.068;12.114;2023-06-14T13:22:43;5.18;;;1.90;;
61471;SDS011;47337;54.068;12.114;2023-06-14T13:25:08;6.57;;;2.10;;
61471;SDS011;47337;54.068;12.114;2023-06-14T13:27:34;5.15;;;2.00;;
61471;SDS011;47337;54.068;12.114;2023-06-14T13:29:59;4.10;;;2.38;;
61471;SDS011;47337;54.068;12.114;2023-06-14T13:32:27;4.53;;;2.05;;
61471;SDS011;47337;54.068;12.114;2023-06-14T13:34:53;4.90;;;2.10;;
61471;SDS011;47337;54.068;12.114;2023-06-14T13:37:18;3.72;;;2.10;;
61471;SDS011;47337;54.068;12.114;2023-06-14T13:39:46;5.30;;;1.88;;
61471;SDS011;47337;54.068;12.114;2023-06-14T13:42:11;3.92;;;1.95;;
61471;SDS011;47337;54.068;12.114;2023-06-14T13:44:37;4.68;;;1.90;;
61471;SDS011;47337;54.068;12.114;2023-06-14T13:47:05;3.97;;;2.10;;
61471;SDS011;47337;54.068;12.114;2023-06-14T13:49:31;4.85;;;2.22;;
61471;SDS011;47337;54.068;12.114;2023-06-14T13:51:56;2.78;;;1.95;;
61471;SDS011;47337;54.068;12.114;2023-06-14T13:54:21;4.75;;;2.17;;
61471;SDS011;47337;54.068;12.114;2023-06-14T13:56:47;6.63;;;2.42;;
61471;SDS011;47337;54.068;12.114;2023-06-14T13:59:12;3.58;;;2.38;;
61471;SDS011;47337;54.068;12.114;2023-06-14T14:01:37;3.83;;;1.83;;
61471;SDS011;47337;54.068;12.114;2023-06-14T14:04:03;4.78;;;2.10;;
61471;SDS011;47337;54.068;12.114;2023-06-14T14:06:30;10.50;;;2.20;;
61471;SDS011;47337;54.068;12.114;2023-06-14T14:08:55;6.22;;;2.08;;
61471;SDS011;47337;54.068;12.114;2023-06-14T14:11:20;3.90;;;2.15;;
61471;SDS011;47337;54.068;12.114;2023-06-14T14:13:46;3.20;;;1.70;;
61471;SDS011;47337;54.068;12.114;2023-06-14T14:16:13;3.83;;;1.90;;
61471;SDS011;47337;54.068;12.114;2023-06-14T14:18:39;3.75;;;1.83;;
61471;SDS011;47337;54.068;12.114;2023-06-14T14:21:04;4.28;;;1.95;;
61471;SDS011;47337;54.068;12.114;2023-06-14T14:23:29;2.22;;;1.70;;
61471;SDS011;47337;54.068;12.114;2023-06-14T14:25:55;3.60;;;1.92;;
61471;SDS011;47337;54.068;12.114;2023-06-14T14:28:22;4.88;;;1.70;;
61471;SDS011;47337;54.068;12.114;2023-06-14T14:30:48;3.47;;;2.08;;
61471;SDS011;47337;54.068;12.114;2023-06-14T14:33:16;2.85;;;1.77;;
61471;SDS011;47337;54.068;12.114;2023-06-14T14:35:45;2.53;;;1.80;;
61471;SDS011;47337;54.068;12.114;2023-06-14T14:38:13;3.05;;;2.00;;
61471;SDS011;47337;54.068;12.114;2023-06-14T14:40:41;5.95;;;2.13;;
61471;SDS011;47337;54.068;12.114;2023-06-14T14:43:07;4.60;;;1.90;;
61471;SDS011;47337;54.068;12.114;2023-06-14T14:45:32;4.97;;;2.08;;
61471;SDS011;47337;54.068;12.114;2023-06-14T14:48:00;4.50;;;2.10;;